Time;durP1;ratioP1;P1;durP2;ratioP2;P2;SDS_P1;SDS_P2;PMS_P1;PMS_P2;Temp;Humidity;BMP_temperature;BMP_pressure;BME280_temperature;BME280_humidity;BME280_pressure;Samples;Min_cycle;Max_cycle;Signal;HPM_P1;HPM_P2
2022/01/28 00:01:26;;;;;;;84.80;45.40;;;;;;;-2.22;81.52;97418.34;110120;1247;68517;-65
2022/01/28 00:04:01;;;;;;;77.50;43.40;;;;;;;-2.23;81.32;97409.47;109998;1247;59728;-66
2022/01/28 00:06:31;;;;;;;115.00;55.70;;;;;;;-2.22;81.09;97409.97;110333;1247;59677;-68
2022/01/28 00:09:00;;;;;;;79.20;44.50;;;;;;;-2.22;81.67;97409.63;110342;1247;71592;-68
2022/01/28 00:11:29;;;;;;;83.40;49.00;;;;;;;-2.22;81.91;97406.20;110209;1247;68606;-66
2022/01/28 00:14:14;;;;;;;69.50;41.20;;;;;;;-2.21;81.92;97409.10;110131;1247;69465;-66
2022/01/28 00:38:51;;;;;;;57.30;33.90;;;;;;;-2.18;81.95;97409.05;110084;1247;68562;-68
2022/01/28 00:41:21;;;;;;;80.30;43.80;;;;;;;-2.17;82.01;97407.48;110358;1247;68623;-67
2022/01/28 00:43:51;;;;;;;73.80;40.00;;;;;;;-2.16;81.98;97402.33;110214;1245;59737;-66
2022/01/28 00:46:20;;;;;;;60.00;33.30;;;;;;;-2.16;81.90;97400.45;110501;1246;60005;-66
2022/01/28 00:48:49;;;;;;;74.80;40.90;;;;;;;-2.14;81.86;97392.55;110580;1246;71345;-66
2022/01/28 00:51:18;;;;;;;70.10;37.60;;;;;;;-2.12;81.70;97388.75;110496;1245;68715;-66
2022/01/28 00:53:48;;;;;;;125.90;64.30;;;;;;;-2.11;81.40;97383.42;110305;1247;68747;-66
2022/01/28 00:56:17;;;;;;;75.80;43.80;;;;;;;-2.13;81.69;97384.16;110498;1247;59664;-66
2022/01/28 00:58:46;;;;;;;82.20;43.20;;;;;;;-2.13;81.89;97377.16;110397;1246;59670;-66
2022/01/28 01:01:16;;;;;;;66.70;38.20;;;;;;;-2.11;81.59;97367.23;110194;1246;71459;-66
2022/01/28 01:03:45;;;;;;;94.00;50.30;;;;;;;-2.12;81.74;97372.02;110079;1247;68641;-66
2022/01/28 01:06:18;;;;;;;73.00;36.80;;;;;;;-2.13;81.82;97374.08;110022;1247;69404;-66
2022/01/28 01:08:48;;;;;;;56.00;30.60;;;;;;;-2.13;81.80;97369.98;109874;1247;59752;-66
2022/01/28 01:11:20;;;;;;;64.00;31.60;;;;;;;-2.11;81.64;97361.08;110105;1247;59729;-66
2022/01/28 01:13:50;;;;;;;74.50;37.10;;;;;;;-2.11;81.79;97361.08;110113;1247;70906;-66
2022/01/28 01:16:28;;;;;;;;;;;;;;;-2.13;81.92;97348.97;110083;1247;69286;-67
2022/01/28 01:21:42;;;;;;;54.20;27.50;;;;;;;-2.14;81.77;97339.79;110122;1247;59675;-66
2022/01/28 01:24:21;;;;;;;53.80;26.50;;;;;;;-2.14;81.48;97335.84;110030;1247;59728;-69
2022/01/28 01:26:51;;;;;;;68.40;32.30;;;;;;;-2.15;81.33;97330.75;110232;1245;70754;-66
2022/01/28 01:29:22;;;;;;;63.90;34.50;;;;;;;-2.17;81.55;97325.85;110193;1247;67684;-66
2022/01/28 01:32:00;;;;;;;82.10;41.60;;;;;;;-2.19;81.83;97323.84;110528;1244;69369;-66
2022/01/28 01:34:30;;;;;;;83.00;43.90;;;;;;;-2.19;81.62;97326.08;110531;1246;60152;-67
2022/01/28 01:36:59;;;;;;;70.90;37.30;;;;;;;-2.21;81.78;97321.70;110241;1247;59753;-66
2022/01/28 01:39:33;;;;;;;55.80;30.20;;;;;;;-2.20;81.79;97317.75;110350;1245;70756;-66
2022/01/28 01:42:16;;;;;;;44.10;25.30;;;;;;;-2.18;81.83;97321.63;110414;1246;68617;-65
2022/01/28 01:52:42;;;;;;;47.00;27.40;;;;;;;-2.12;81.95;97309.35;110253;1247;70745;-66
2022/01/28 01:55:12;;;;;;;;;;;;;;;-2.10;81.94;97304.86;110325;1247;68422;-66
2022/01/28 01:57:44;;;;;;;35.10;17.70;;;;;;;-2.10;81.94;97302.63;110270;1246;68716;-65
2022/01/28 02:00:16;;;;;;;32.10;19.10;;;;;;;-2.09;81.93;97299.52;110199;1247;59694;-66
2022/01/28 02:02:49;;;;;;;41.90;26.20;;;;;;;-2.08;81.79;97298.99;110342;1246;59672;-65
2022/01/28 02:05:19;;;;;;;;;;;;;;;-2.08;81.69;97295.92;110387;1246;71619;-68
2022/01/28 02:07:48;;;;;;;29.30;17.00;;;;;;;-2.07;81.60;97287.20;110368;1246;67695;-66
2022/01/28 02:10:18;;;;;;;34.10;17.50;;;;;;;-2.09;81.53;97289.46;110396;1246;69360;-65
2022/01/28 02:12:52;;;;;;;47.40;24.80;;;;;;;-2.10;81.07;97280.27;110272;1246;59714;-67
2022/01/28 02:15:21;;;;;;;54.80;27.40;;;;;;;-2.13;81.02;97281.02;110223;1247;59630;-66
2022/01/28 02:17:50;;;;;;;50.30;28.60;;;;;;;-2.16;81.09;97277.85;110347;1247;70659;-66
2022/01/28 02:20:26;;;;;;;;;;;;;;;-2.19;81.48;97276.04;110293;1247;68441;-66
2022/01/28 02:22:56;;;;;;;42.30;21.80;;;;;;;-2.20;81.68;97280.19;110365;1244;68706;-66
2022/01/28 02:25:28;;;;;;;50.50;29.20;;;;;;;-2.21;81.83;97274.23;110203;1246;59687;-67
2022/01/28 02:28:05;;;;;;;38.40;20.90;;;;;;;-2.22;81.83;97276.98;110032;1247;59679;-67
2022/01/28 02:30:34;;;;;;;28.10;14.50;;;;;;;-2.22;81.84;97268.77;110596;1246;71548;-67
2022/01/28 02:33:17;;;;;;;37.70;19.70;;;;;;;-2.22;81.31;97255.29;110495;1245;68588;-66
2022/01/28 02:35:49;;;;;;;46.30;24.90;;;;;;;-2.23;81.24;97258.56;110348;1246;68837;-66
2022/01/28 02:38:22;;;;;;;43.60;22.50;;;;;;;-2.27;81.38;97252.85;110271;1247;59740;-67
2022/01/28 02:40:57;;;;;;;63.70;31.50;;;;;;;-2.29;81.47;97247.27;110281;1247;59693;-65
2022/01/28 02:46:18;;;;;;;50.80;25.00;;;;;;;-2.33;82.20;97256.94;110168;1247;68488;-66
2022/01/28 02:49:00;;;;;;;44.30;22.00;;;;;;;-2.34;82.06;97253.37;110373;1246;69582;-66
2022/01/28 02:51:30;;;;;;;29.40;14.70;;;;;;;-2.34;82.04;97252.51;110568;1246;59742;-66
2022/01/28 02:54:10;;;;;;;30.70;18.10;;;;;;;-2.33;81.69;97246.69;110285;1247;59673;-66
2022/01/28 02:56:47;;;;;;;42.00;21.70;;;;;;;-2.33;81.42;97241.55;110240;1247;69639;-65
2022/01/28 02:59:18;;;;;;;40.20;21.10;;;;;;;-2.34;81.55;97241.75;110290;1247;68439;-67
2022/01/28 03:01:48;;;;;;;48.80;24.20;;;;;;;-2.34;81.61;97244.15;110208;1247;67573;-66
2022/01/28 03:04:48;;;;;;;66.80;29.20;;;;;;;-2.37;81.66;97252.41;110589;1246;59674;-66
2022/01/28 03:07:07;;;;;;;45.00;25.40;;;;;;;-2.38;82.50;97253.83;110383;1245;59685;-66
2022/01/28 03:10:12;;;;;;;48.90;25.40;;;;;;;-2.40;82.58;97252.49;110352;1244;69861;-66
2022/01/28 03:15:26;;;;;;;56.40;26.80;;;;;;;-2.40;82.57;97259.51;110312;1246;68730;-66
2022/01/28 03:18:09;;;;;;;52.80;28.00;;;;;;;-2.39;82.51;97260.51;110537;1245;60092;-66
2022/01/28 03:20:44;;;;;;;58.50;27.60;;;;;;;-2.37;82.43;97256.68;110172;1247;59659;-66
2022/01/28 03:23:14;;;;;;;52.80;28.10;;;;;;;-2.37;82.84;97250.88;110534;1245;70807;-66
2022/01/28 03:25:45;;;;;;;44.50;23.90;;;;;;;-2.35;82.85;97249.31;110290;1246;68609;-65
2022/01/28 03:28:16;;;;;;;55.00;25.50;;;;;;;-2.33;82.76;97246.85;110416;1244;68707;-67
2022/01/28 03:30:45;;;;;;;65.10;28.10;;;;;;;-2.32;82.52;97245.11;110233;1247;59665;-68
2022/01/28 03:33:14;;;;;;;51.90;26.50;;;;;;;-2.32;82.48;97245.29;110463;1244;59683;-68
2022/01/28 03:35:44;;;;;;;38.80;21.30;;;;;;;-2.31;82.68;97244.09;110369;1245;70485;-68
2022/01/28 03:38:14;;;;;;;;;;;;;;;-2.29;82.65;97237.21;110585;1246;67638;-66
2022/01/28 03:40:46;;;;;;;32.80;16.30;;;;;;;-2.27;82.73;97239.03;110590;1246;68334;-65
2022/01/28 03:43:16;;;;;;;49.00;23.60;;;;;;;-2.25;82.70;97239.18;110259;1246;60172;-66
2022/01/28 03:45:45;;;;;;;44.90;26.30;;;;;;;-2.25;82.45;97235.40;110490;1246;59667;-67
2022/01/28 03:48:15;;;;;;;58.10;28.50;;;;;;;-2.24;82.50;97235.02;110546;1246;71572;-65
2022/01/28 03:50:45;;;;;;;60.70;29.60;;;;;;;-2.22;82.62;97232.59;110026;1247;67956;-67
2022/01/28 03:53:14;;;;;;;65.20;31.40;;;;;;;-2.22;82.34;97233.11;110047;1246;68736;-68
2022/01/28 03:55:46;;;;;;;50.40;24.10;;;;;;;-2.24;82.45;97233.17;110202;1247;59775;-68
2022/01/28 03:58:15;;;;;;;55.50;25.50;;;;;;;-2.23;82.68;97230.05;110208;1247;59737;-68
2022/01/28 04:00:45;;;;;;;41.80;21.10;;;;;;;-2.22;82.74;97226.77;110215;1247;71471;-68
2022/01/28 04:11:33;;;;;;;42.70;21.70;;;;;;;-2.17;82.06;97197.45;110078;1247;59601;-65
2022/01/28 04:14:34;;;;;;;37.70;21.10;;;;;;;-2.19;81.94;97201.25;110137;1247;71416;-66
2022/01/28 04:19:37;;;;;;;50.80;27.20;;;;;;;-2.21;82.35;97205.25;110043;1247;68575;-66
2022/01/28 04:22:06;;;;;;;;;;;;;;;-2.21;82.10;97199.11;110108;1247;59756;-67
2022/01/28 04:24:36;;;;;;;37.00;21.20;;;;;;;-2.22;82.72;97200.83;110264;1247;59671;-67
2022/01/28 04:27:05;;;;;;;36.20;19.70;;;;;;;-2.22;82.82;97203.73;110197;1247;71553;-67
2022/01/28 04:29:34;;;;;;;48.80;23.60;;;;;;;-2.22;82.81;97203.56;110186;1247;68300;-67
2022/01/28 04:32:04;;;;;;;54.10;26.10;;;;;;;-2.22;83.02;97199.63;110145;1247;68763;-67
2022/01/28 04:34:34;;;;;;;42.00;21.00;;;;;;;-2.21;82.80;97198.77;110045;1247;59761;-67
2022/01/28 04:37:14;;;;;;;47.10;23.60;;;;;;;-2.19;82.81;97196.33;110224;1247;59589;-66
2022/01/28 04:39:53;;;;;;;51.40;24.00;;;;;;;-2.17;83.08;97198.65;110200;1247;71528;-67
2022/01/28 04:45:29;;;;;;;37.30;20.30;;;;;;;-2.13;82.94;97195.64;110166;1247;69354;-67
2022/01/28 04:51:04;;;;;;;36.80;19.30;;;;;;;-2.08;82.80;97204.91;110228;1247;59754;-67
2022/01/28 04:53:47;;;;;;;32.10;16.10;;;;;;;-2.06;82.82;97210.00;110235;1247;71614;-66
2022/01/28 05:07:37;;;;;;;80.50;34.70;;;;;;;-1.96;82.26;97174.04;110257;1244;69900;-68
2022/01/28 05:10:52;;;;;;;64.30;30.10;;;;;;;-1.99;82.52;97195.30;110274;1246;67779;-68
2022/01/28 05:14:32;;;;;;;50.30;24.20;;;;;;;-2.05;82.57;97215.60;110457;1246;69519;-66
2022/01/28 05:27:18;;;;;;;38.10;18.10;;;;;;;-2.07;82.42;97167.33;110284;1244;69466;-66
2022/01/28 05:29:48;;;;;;;38.50;20.60;;;;;;;-2.06;82.27;97152.77;110422;1244;60225;-66
2022/01/28 05:32:17;;;;;;;44.10;22.50;;;;;;;-2.06;82.50;97151.77;110348;1244;59690;-66
2022/01/28 05:34:47;;;;;;;38.70;21.00;;;;;;;-2.09;82.78;97158.31;110342;1244;71567;-67
2022/01/28 05:37:16;;;;;;;54.20;24.90;;;;;;;-2.11;82.90;97179.20;110537;1244;67601;-67
2022/01/28 05:39:45;;;;;;;38.70;22.00;;;;;;;-2.10;82.97;97187.04;110516;1244;68644;-68
2022/01/28 05:42:14;;;;;;;66.90;34.90;;;;;;;-2.09;82.98;97197.95;110535;1244;59762;-67
2022/01/28 05:44:43;;;;;;;63.30;29.50;;;;;;;-2.10;83.54;97201.21;110524;1244;59609;-67
2022/01/28 05:47:15;;;;;;;60.80;26.90;;;;;;;-2.11;83.29;97204.48;110498;1244;71341;-66
2022/01/28 05:49:45;;;;;;;47.80;26.60;;;;;;;-2.10;83.30;97202.90;110278;1246;67840;-67
2022/01/28 05:52:14;;;;;;;41.20;22.80;;;;;;;-2.08;83.33;97208.50;110245;1245;68660;-65
2022/01/28 05:54:43;;;;;;;40.00;19.50;;;;;;;-2.05;83.46;97216.80;110404;1244;59687;-66
2022/01/28 05:57:13;;;;;;;41.20;22.90;;;;;;;-2.02;83.16;97221.49;110393;1243;60071;-66
2022/01/28 05:59:42;;;;;;;51.70;27.40;;;;;;;-1.99;83.25;97223.64;110418;1244;70702;-65
2022/01/28 06:02:11;;;;;;;54.70;26.70;;;;;;;-1.99;82.98;97227.73;110288;1244;67655;-66
2022/01/28 06:04:42;;;;;;;55.90;28.80;;;;;;;-2.00;83.03;97222.30;110237;1244;69536;-66
2022/01/28 06:07:12;;;;;;;;;;;;;;;-2.00;83.21;97223.66;110587;1244;59704;-66
2022/01/28 06:09:40;;;;;;;46.20;22.80;;;;;;;-1.99;83.21;97223.98;110421;1244;59612;-66
2022/01/28 06:12:10;;;;;;;51.30;23.90;;;;;;;-1.98;83.33;97224.30;110230;1245;71810;-66
2022/01/28 06:14:39;;;;;;;61.50;27.60;;;;;;;-1.94;83.24;97216.67;110478;1244;69169;-66
2022/01/28 06:17:08;;;;;;;57.70;27.20;;;;;;;-1.93;83.03;97214.60;110381;1242;69110;-65
2022/01/28 06:19:37;;;;;;;49.50;22.20;;;;;;;-1.92;83.00;97224.99;110388;1244;59742;-66
2022/01/28 06:22:07;;;;;;;44.00;22.80;;;;;;;-1.88;83.10;97233.79;110430;1244;60121;-66
2022/01/28 06:24:36;;;;;;;41.70;22.70;;;;;;;-1.86;83.28;97233.70;110140;1245;72286;-66
2022/01/28 06:27:05;;;;;;;51.50;25.00;;;;;;;-1.84;83.20;97235.38;110380;1244;67806;-66
2022/01/28 06:29:34;;;;;;;48.20;27.00;;;;;;;-1.82;83.04;97237.02;110439;1244;70136;-66
2022/01/28 06:32:04;;;;;;;45.60;22.20;;;;;;;-1.80;83.24;97233.89;110387;1244;59675;-67
2022/01/28 06:34:33;;;;;;;57.70;30.10;;;;;;;-1.76;82.71;97243.53;110428;1244;59673;-65
2022/01/28 06:37:03;;;;;;;58.20;32.30;;;;;;;-1.77;82.79;97246.80;110327;1244;71631;-68
2022/01/28 06:39:32;;;;;;;50.10;30.50;;;;;;;-1.75;82.93;97244.71;110405;1244;69477;-65
2022/01/28 06:42:02;;;;;;;58.00;33.70;;;;;;;-1.75;82.95;97248.98;110270;1244;69537;-65
2022/01/28 06:44:31;;;;;;;47.40;27.50;;;;;;;-1.72;82.85;97243.77;110309;1245;59702;-66
2022/01/28 06:47:00;;;;;;;69.30;35.90;;;;;;;-1.70;82.89;97238.41;110349;1244;59649;-66
2022/01/28 06:49:31;;;;;;;55.40;31.60;;;;;;;-1.67;82.90;97242.61;110408;1244;70754;-65
2022/01/28 06:52:00;;;;;;;49.40;27.90;;;;;;;-1.65;82.76;97236.91;110410;1244;67884;-66
2022/01/28 06:54:29;;;;;;;74.60;41.10;;;;;;;-1.61;82.37;97224.52;110405;1244;69524;-68
2022/01/28 06:56:58;;;;;;;74.20;41.30;;;;;;;-1.64;82.35;97238.77;110440;1244;59757;-68
2022/01/28 06:59:27;;;;;;;83.00;42.80;;;;;;;-1.66;82.63;97244.14;110528;1244;59702;-68
2022/01/28 07:01:56;;;;;;;70.70;39.00;;;;;;;-1.66;82.85;97243.11;110146;1244;486571;-68
2022/01/28 07:04:25;;;;;;;66.80;39.60;;;;;;;-1.64;82.97;97255.17;110489;1244;68651;-67
2022/01/28 07:06:54;;;;;;;52.60;30.90;;;;;;;-1.61;82.96;97265.18;110257;1247;69919;-66
2022/01/28 07:09:23;;;;;;;51.80;30.30;;;;;;;-1.56;82.78;97255.64;110353;1244;59764;-68
2022/01/28 07:11:52;;;;;;;78.00;40.80;;;;;;;-1.51;82.40;97244.75;110331;1244;59648;-68
2022/01/28 07:14:21;;;;;;;54.90;29.50;;;;;;;-1.48;82.48;97242.44;110452;1244;71541;-67
2022/01/28 07:16:50;;;;;;;70.00;36.10;;;;;;;-1.45;82.18;97246.44;110226;1246;67822;-68
2022/01/28 07:19:20;;;;;;;52.10;29.80;;;;;;;-1.44;82.28;97261.98;110382;1244;69348;-66
2022/01/28 07:21:49;;;;;;;42.20;24.10;;;;;;;-1.42;82.33;97269.64;110262;1245;59664;-68
2022/01/28 07:24:19;;;;;;;45.10;25.30;;;;;;;-1.39;82.26;97276.73;110344;1245;59648;-67
2022/01/28 07:26:48;;;;;;;65.80;39.00;;;;;;;-1.37;82.22;97272.73;110304;1244;71485;-67
2022/01/28 07:29:18;;;;;;;62.00;35.10;;;;;;;-1.36;82.30;97271.35;110416;1244;69030;-70
2022/01/28 07:31:47;;;;;;;72.10;40.00;;;;;;;-1.35;82.32;97263.27;110521;1245;69993;-70
2022/01/28 07:34:16;;;;;;;59.40;36.50;;;;;;;-1.33;82.33;97259.27;110482;1244;59649;-65
2022/01/28 07:36:45;;;;;;;53.50;33.90;;;;;;;-1.28;82.31;97260.67;110510;1244;59681;-66
2022/01/28 07:39:13;;;;;;;47.90;29.50;;;;;;;-1.24;82.07;97266.73;110541;1244;70744;-69
2022/01/28 07:41:43;;;;;;;41.10;28.10;;;;;;;-1.20;82.06;97263.54;110507;1244;68585;-70
2022/01/28 07:44:12;;;;;;;59.60;36.40;;;;;;;-1.16;81.96;97266.33;110542;1244;67541;-67
2022/01/28 07:46:41;;;;;;;56.40;30.80;;;;;;;-1.13;81.88;97256.99;110334;1245;59681;-66
2022/01/28 07:49:16;;;;;;;44.90;28.10;;;;;;;-1.07;81.89;97256.50;110532;1244;59660;-67
2022/01/28 07:51:45;;;;;;;70.20;35.60;;;;;;;-1.00;81.79;97261.95;110556;1244;71523;-67
2022/01/28 07:54:14;;;;;;;65.00;36.80;;;;;;;-0.96;81.44;97259.11;110264;1246;67986;-67
2022/01/28 07:56:46;;;;;;;61.60;33.60;;;;;;;-0.97;81.49;97260.31;110575;1244;70160;-68
2022/01/28 07:59:15;;;;;;;49.50;28.30;;;;;;;-0.98;81.49;97254.17;110474;1244;59685;-66
2022/01/28 08:01:44;;;;;;;65.80;37.20;;;;;;;-0.95;81.51;97251.70;110543;1244;59690;-66
2022/01/28 08:04:14;;;;;;;49.30;29.80;;;;;;;-0.87;81.69;97242.91;110217;1247;71725;-66
2022/01/28 08:06:42;;;;;;;44.70;24.90;;;;;;;-0.78;81.45;97233.91;110515;1244;68844;-66
2022/01/28 08:09:11;;;;;;;65.30;36.20;;;;;;;-0.68;81.17;97230.35;110477;1243;70105;-66
2022/01/28 08:11:40;;;;;;;43.40;24.90;;;;;;;-0.58;81.21;97227.12;110451;1245;59729;-66
2022/01/28 08:14:10;;;;;;;74.00;38.70;;;;;;;-0.46;80.90;97218.87;110521;1246;59600;-67
2022/01/28 08:16:39;;;;;;;72.80;40.60;;;;;;;-0.34;80.73;97214.05;110516;1244;70818;-67
2022/01/28 08:19:08;;;;;;;64.90;35.50;;;;;;;-0.20;80.47;97214.96;110397;1244;67932;-67
2022/01/28 08:21:37;;;;;;;39.30;24.00;;;;;;;-0.04;80.53;97218.02;110534;1244;69344;-67
2022/01/28 08:24:06;;;;;;;43.60;24.10;;;;;;;0.18;80.07;97223.77;110437;1244;59768;-68
2022/01/28 08:26:35;;;;;;;50.30;27.10;;;;;;;0.38;79.49;97228.24;110545;1244;59744;-68
2022/01/28 08:29:06;;;;;;;44.80;29.80;;;;;;;0.57;79.09;97225.33;110271;1244;72188;-67
2022/01/28 08:31:36;;;;;;;58.00;30.70;;;;;;;0.75;78.44;97231.38;110229;1247;68858;-67
2022/01/28 08:34:06;;;;;;;49.40;29.80;;;;;;;0.89;77.78;97229.66;110311;1246;69372;-67
2022/01/28 08:36:35;;;;;;;43.90;26.10;;;;;;;1.00;77.13;97225.80;110323;1244;59746;-67
2022/01/28 08:39:06;;;;;;;58.60;32.50;;;;;;;1.09;76.58;97223.91;110514;1244;59680;-66
2022/01/28 08:41:36;;;;;;;48.10;29.90;;;;;;;1.16;76.05;97224.50;110533;1244;71513;-66
2022/01/28 08:44:05;;;;;;;62.20;35.80;;;;;;;1.25;75.51;97227.08;110467;1244;67833;-67
2022/01/28 08:46:34;;;;;;;88.40;46.80;;;;;;;1.32;75.55;97229.04;110359;1246;70010;-66
2022/01/28 08:49:04;;;;;;;61.90;35.90;;;;;;;1.29;74.06;97231.39;110498;1244;59611;-67
2022/01/28 08:51:38;;;;;;;75.00;42.80;;;;;;;1.31;74.82;97234.39;110568;1244;59696;-67
2022/01/28 08:54:07;;;;;;;52.20;31.10;;;;;;;1.30;74.91;97231.02;110589;1244;71525;-67
2022/01/28 08:56:35;;;;;;;53.00;29.50;;;;;;;1.25;74.39;97222.63;110506;1244;68547;-66
2022/01/28 08:59:20;;;;;;;56.30;33.60;;;;;;;1.25;74.79;97222.45;110476;1244;69508;-67
2022/01/28 09:01:49;;;;;;;49.70;28.80;;;;;;;1.24;74.46;97219.91;110235;1245;59692;-66
2022/01/28 09:04:18;;;;;;;62.20;34.00;;;;;;;1.18;74.32;97222.89;110532;1244;60116;-67
2022/01/28 09:06:47;;;;;;;55.40;32.00;;;;;;;1.04;74.47;97229.43;110577;1244;71516;-67
2022/01/28 09:09:19;;;;;;;45.40;26.60;;;;;;;0.82;74.63;97239.31;110216;1247;67452;-66
2022/01/28 09:12:04;;;;;;;55.30;31.40;;;;;;;0.64;75.46;97249.61;110443;1245;69997;-67
2022/01/28 09:14:34;;;;;;;46.80;25.60;;;;;;;0.49;75.85;97253.20;110421;1245;59737;-68
2022/01/28 09:17:03;;;;;;;60.30;34.10;;;;;;;0.45;76.21;97256.61;110451;1244;59698;-67
2022/01/28 09:19:32;;;;;;;68.10;36.70;;;;;;;0.35;76.64;97259.70;110571;1244;71477;-67
2022/01/28 09:22:00;;;;;;;58.30;33.40;;;;;;;0.23;77.08;97260.45;110246;1247;68392;-67
2022/01/28 09:24:30;;;;;;;48.40;26.40;;;;;;;0.17;77.45;97266.34;110239;1245;69999;-67
2022/01/28 09:26:59;;;;;;;68.30;35.00;;;;;;;0.16;77.64;97273.89;110549;1246;59687;-67
2022/01/28 09:29:28;;;;;;;56.30;29.30;;;;;;;0.17;77.83;97273.15;110493;1246;59622;-68
2022/01/28 09:31:57;;;;;;;64.40;37.70;;;;;;;0.16;78.28;97271.98;110251;1246;72097;-68
2022/01/28 09:34:27;;;;;;;67.20;38.30;;;;;;;0.12;78.46;97270.61;110284;1247;68609;-67
2022/01/28 09:36:57;;;;;;;61.40;32.30;;;;;;;-0.02;78.82;97274.33;110324;1245;69452;-68
2022/01/28 09:39:25;;;;;;;56.80;33.40;;;;;;;-0.08;78.88;97278.30;110171;1247;59742;-67
2022/01/28 09:42:00;;;;;;;63.90;36.30;;;;;;;-0.12;79.23;97279.98;110252;1247;59746;-67
2022/01/28 09:44:31;;;;;;;61.70;35.80;;;;;;;-0.15;79.39;97287.23;110308;1246;71425;-67
2022/01/28 09:47:01;;;;;;;57.60;31.10;;;;;;;-0.19;79.37;97287.70;110316;1246;69032;-68
2022/01/28 09:49:31;;;;;;;54.70;31.10;;;;;;;-0.20;79.37;97280.91;110189;1247;68649;-69
2022/01/28 09:52:00;;;;;;;56.00;27.90;;;;;;;-0.21;79.30;97284.36;110270;1247;59745;-67
2022/01/28 09:54:30;;;;;;;67.40;36.70;;;;;;;-0.23;79.38;97279.27;110283;1246;59735;-68
2022/01/28 09:56:59;;;;;;;51.30;28.00;;;;;;;-0.27;79.63;97275.47;110219;1247;71541;-67
2022/01/28 09:59:29;;;;;;;68.20;36.20;;;;;;;-0.29;79.81;97273.12;110141;1247;68629;-67
2022/01/28 10:01:58;;;;;;;51.80;27.10;;;;;;;-0.33;80.02;97272.55;110217;1247;69839;-67
2022/01/28 10:04:27;;;;;;;71.00;38.80;;;;;;;-0.34;80.07;97262.81;110329;1244;59655;-68
2022/01/28 10:06:58;;;;;;;68.30;39.60;;;;;;;-0.37;80.30;97258.66;110336;1247;60561;-66
2022/01/28 10:09:27;;;;;;;71.30;39.90;;;;;;;-0.41;80.62;97252.30;110535;1245;71373;-66
2022/01/28 10:12:19;;;;;;;77.90;41.60;;;;;;;-0.44;80.62;97247.59;110552;1246;68723;-66
2022/01/28 10:15:16;;;;;;;63.60;33.00;;;;;;;-0.48;80.91;97247.39;110499;1245;69257;-67
2022/01/28 10:17:54;;;;;;;71.00;38.30;;;;;;;-0.46;81.09;97244.23;110315;1247;59723;-66
2022/01/28 10:20:25;;;;;;;85.90;42.80;;;;;;;-0.42;81.12;97241.70;110274;1247;59690;-66
2022/01/28 10:22:57;;;;;;;79.90;41.90;;;;;;;-0.41;81.06;97242.54;110238;1247;70851;-67
2022/01/28 10:25:33;;;;;;;78.80;43.50;;;;;;;-0.43;81.10;97243.07;110509;1246;69161;-67
2022/01/28 10:28:05;;;;;;;69.20;36.60;;;;;;;-0.44;81.21;97239.86;110210;1247;68792;-67
2022/01/28 10:30:43;;;;;;;64.70;36.50;;;;;;;-0.48;81.44;97242.77;110208;1247;59715;-66
2022/01/28 10:33:18;;;;;;;63.30;35.70;;;;;;;-0.50;81.64;97242.82;110321;1247;59609;-67
2022/01/28 10:35:50;;;;;;;76.80;42.30;;;;;;;-0.51;81.88;97244.19;110267;1247;71561;-66
2022/01/28 10:38:33;;;;;;;77.00;39.30;;;;;;;-0.52;82.22;97244.89;110235;1247;68646;-67
2022/01/28 10:41:14;;;;;;;75.30;41.30;;;;;;;-0.49;82.43;97244.16;110180;1247;68638;-66
2022/01/28 10:43:48;;;;;;;69.20;34.90;;;;;;;-0.48;82.84;97243.08;110218;1247;59658;-66
2022/01/28 10:46:26;;;;;;;76.10;44.60;;;;;;;-0.46;82.94;97244.21;110536;1246;59642;-67
2022/01/28 10:48:58;;;;;;;76.40;40.80;;;;;;;-0.43;82.92;97247.20;110557;1246;72038;-67
2022/01/28 10:51:42;;;;;;;67.30;38.30;;;;;;;-0.43;83.15;97246.36;110205;1247;68990;-67
2022/01/28 10:54:20;;;;;;;71.70;39.00;;;;;;;-0.41;83.24;97246.98;110219;1247;70006;-67
2022/01/28 10:57:00;;;;;;;76.00;39.40;;;;;;;-0.40;83.22;97245.38;110538;1247;59798;-67
2022/01/28 10:59:33;;;;;;;59.10;30.50;;;;;;;-0.36;83.14;97245.61;110524;1246;59634;-67
2022/01/28 11:02:03;;;;;;;64.70;31.20;;;;;;;-0.32;83.05;97245.98;110227;1247;72288;-67
2022/01/28 11:04:33;;;;;;;72.00;36.50;;;;;;;-0.27;82.89;97249.10;110565;1246;68012;-68
2022/01/28 11:07:03;;;;;;;59.00;29.90;;;;;;;-0.25;82.83;97247.31;110151;1246;69419;-68
2022/01/28 11:09:32;;;;;;;60.90;31.20;;;;;;;-0.26;83.04;97246.83;110309;1246;59661;-66
2022/01/28 11:12:02;;;;;;;75.60;38.70;;;;;;;-0.26;83.15;97245.80;110536;1246;59665;-66
2022/01/28 11:14:31;;;;;;;69.00;36.40;;;;;;;-0.24;82.99;97246.59;110603;1244;71958;-67
2022/01/28 11:17:00;;;;;;;67.00;36.10;;;;;;;-0.22;83.05;97243.46;110572;1246;68999;-67
2022/01/28 11:19:33;;;;;;;63.90;34.80;;;;;;;-0.19;83.05;97242.16;110531;1245;69432;-66
2022/01/28 11:22:16;;;;;;;66.90;34.90;;;;;;;-0.16;83.02;97241.03;110570;1246;59680;-66
2022/01/28 11:25:06;;;;;;;53.00;26.90;;;;;;;-0.14;82.95;97243.70;110510;1245;59621;-66
2022/01/28 11:27:37;;;;;;;52.10;28.20;;;;;;;-0.11;82.81;97247.17;110579;1245;72230;-66
2022/01/28 11:30:25;;;;;;;49.90;26.90;;;;;;;-0.07;82.73;97248.62;110545;1244;68440;-68
2022/01/28 11:33:01;;;;;;;45.10;24.60;;;;;;;-0.03;82.53;97248.83;110397;1244;70070;-67
2022/01/28 11:35:34;;;;;;;66.40;35.70;;;;;;;0.03;82.33;97249.81;110434;1244;60131;-66
2022/01/28 11:38:42;;;;;;;51.10;27.40;;;;;;;0.04;82.32;97252.19;110501;1244;59741;-66
2022/01/28 11:41:24;;;;;;;59.70;33.00;;;;;;;0.09;82.33;97255.77;109592;1253;70772;-67
2022/01/28 11:43:56;;;;;;;53.80;28.10;;;;;;;0.14;82.34;97251.34;109637;1253;69146;-66
2022/01/28 11:46:38;;;;;;;48.40;25.40;;;;;;;0.18;82.47;97253.45;109698;1253;69848;-65
2022/01/28 11:49:07;;;;;;;72.10;34.70;;;;;;;0.21;82.50;97256.08;109496;1253;59680;-66
2022/01/28 11:51:41;;;;;;;72.60;37.20;;;;;;;0.22;82.36;97258.75;109438;1253;59713;-68
2022/01/28 11:54:15;;;;;;;65.60;33.90;;;;;;;0.14;82.84;97261.79;109637;1253;72181;-67
2022/01/28 11:56:56;;;;;;;72.50;38.20;;;;;;;0.08;83.40;97263.02;109613;1253;69040;-68
2022/01/28 11:59:26;;;;;;;70.50;37.40;;;;;;;0.04;83.95;97264.70;109627;1253;69818;-68
2022/01/28 12:01:55;;;;;;;66.30;38.50;;;;;;;0.05;83.82;97265.17;109616;1253;60197;-65
2022/01/28 12:04:24;;;;;;;66.60;34.50;;;;;;;-0.01;84.11;97267.91;109660;1253;59626;-66
2022/01/28 12:07:02;;;;;;;62.10;32.10;;;;;;;-0.06;84.59;97265.69;109701;1253;71356;-65
2022/01/28 12:09:34;;;;;;;56.60;31.60;;;;;;;-0.06;84.39;97264.83;109489;1253;68638;-65
2022/01/28 12:12:05;;;;;;;52.90;31.10;;;;;;;-0.07;84.73;97267.27;109437;1253;69407;-67
2022/01/28 12:14:55;;;;;;;52.00;28.60;;;;;;;-0.04;84.63;97268.23;109741;1253;59655;-66
2022/01/28 12:17:35;;;;;;;55.60;27.70;;;;;;;-0.02;84.55;97261.61;110158;1247;59631;-68
2022/01/28 12:20:42;;;;;;;42.40;23.70;;;;;;;-0.00;84.86;97255.76;110573;1244;71552;-68
2022/01/28 12:23:11;;;;;;;45.30;23.90;;;;;;;0.04;84.76;97259.38;110524;1244;68297;-68
2022/01/28 12:25:39;;;;;;;34.50;19.10;;;;;;;0.09;84.84;97261.27;110482;1244;69876;-68
2022/01/28 12:28:17;;;;;;;30.70;18.60;;;;;;;0.15;84.55;97261.07;110591;1244;59644;-68
2022/01/28 12:30:50;;;;;;;43.20;25.10;;;;;;;0.21;84.41;97257.95;110531;1244;59684;-67
2022/01/28 12:33:24;;;;;;;45.10;23.80;;;;;;;0.26;84.19;97257.28;110417;1244;71933;-68
2022/01/28 12:35:56;;;;;;;41.60;22.90;;;;;;;0.26;84.06;97258.13;110570;1244;68395;-68
2022/01/28 12:38:29;;;;;;;35.40;22.50;;;;;;;0.26;84.02;97257.96;110547;1244;70004;-68
2022/01/28 12:41:07;;;;;;;41.40;23.20;;;;;;;0.24;84.29;97253.41;110554;1244;59704;-68
2022/01/28 12:43:38;;;;;;;48.70;26.60;;;;;;;0.26;84.10;97254.52;110567;1245;59689;-68
2022/01/28 12:46:10;;;;;;;48.90;26.90;;;;;;;0.26;84.36;97250.40;110543;1245;70973;-70
2022/01/28 12:48:52;;;;;;;51.80;29.00;;;;;;;0.30;84.53;97248.59;110659;1244;68653;-68
2022/01/28 12:51:21;;;;;;;;;;;;;;;0.35;84.42;97241.71;110511;1244;69070;-68
2022/01/28 12:53:55;;;;;;;45.00;26.80;;;;;;;0.38;84.53;97243.48;110469;1246;59752;-68